Delta Billie — WDE8059 — position and weather

sailwx.info

Track history (hours):
 
Tides and Currents Weather Stations Pressure Air Temp Water Temp Dewpoint Dewpoint Depression Visibility Wind Speed Wind Dir Waves Ship Positions

Delta Billie

Owner: Baydelta Maritime, San Francicso, CA. More information available from US FCC via Universal Licensing System and Coast Guard Vessel Documentation Center.

Last reported at 2016-Sep-24 16:21 UTC. Time now 2016-Sep-24 20:59 UTC.
Position N 38°03' W 122°11'.

Length 30 m; draft 5.5 m.

Type: Towing. MMSI: 367401030.

Date/timePositionNaut miles runAvg speedWind from/ knotsBaromVisibWave heightAir tempDewpointWater temp
2016-Sep-24 16:21N 38°03' W 122°11'3 0.2
2016-Sep-24 03:32N 38°02' W 122°07'0 0.2
2016-Sep-24 01:26N 38°02' W 122°08'5 0.9
2016-Sep-23 19:27N 38°04' W 122°14'3 0.7
2016-Sep-23 15:27N 38°03' W 122°18'10 5.0
2016-Sep-23 13:33N 37°55' W 122°25'0 0.0
2016-Sep-23 09:34N 37°55' W 122°25'0 0.0
2016-Sep-23 06:34N 37°55' W 122°25'0 0.0
2016-Sep-23 04:33N 37°55' W 122°25'0 0.0
2016-Sep-23 03:34N 37°55' W 122°25'0 0.0
2016-Sep-23 02:33N 37°55' W 122°25'0 0.0
2016-Sep-23 01:34N 37°55' W 122°25'0 0.0
2016-Sep-23 00:34N 37°55' W 122°25'2 2.2
2016-Sep-22 23:33N 37°54' W 122°22'6 2.1
2016-Sep-22 20:33N 37°48' W 122°24'3 0.4
2016-Sep-22 12:33N 37°49' W 122°20'3 0.4
2016-Sep-22 04:33N 37°48' W 122°24'0 0.0
2016-Sep-22 03:33N 37°48' W 122°24'18 2.2
2016-Sep-21 19:28N 38°03' W 122°11'16 5.3
2016-Sep-21 16:33N 37°50' W 122°22'4 0.6
2016-Sep-21 09:33N 37°54' W 122°25'8 8.3
2016-Sep-21 08:33N 38°02' W 122°22'13 2.5
2016-Sep-21 03:33N 38°03' W 122°06'2 2.3
2016-Sep-21 02:33N 38°02' W 122°09'5 0.1
2016-Sep-19 12:24N 38°03' W 122°15'1 0.9
2016-Sep-19 11:33N 38°03' W 122°16'16 0.8
2016-Sep-18 15:34N 37°50' W 122°27'4 3.8
2016-Sep-18 14:33N 37°48' W 122°30'9 2.3
2016-Sep-18 10:34N 37°48' W 122°19'2 1.6
2016-Sep-18 09:33N 37°48' W 122°21'3 0.4
2016-Sep-18 02:33N 37°48' W 122°24'4 3.9
2016-Sep-18 01:34N 37°45' W 122°21'6 6.1
2016-Sep-18 00:34N 37°49' W 122°27'2 1.0
2016-Sep-17 22:34N 37°49' W 122°24'1 0.7
2016-Sep-17 21:33N 37°48' W 122°24'0 0.0
2016-Sep-17 20:33N 37°48' W 122°24'3 2.2
2016-Sep-17 19:16N 37°51' W 122°25'5 0.8
2016-Sep-17 13:33N 37°56' W 122°25'0 0.0
2016-Sep-17 10:33N 37°56' W 122°25'0 0.0
2016-Sep-17 09:29N 37°56' W 122°25'6 6.3
2016-Sep-17 08:33N 37°50' W 122°28'1 0.7
2016-Sep-17 07:34N 37°50' W 122°28'14 6.9
2016-Sep-17 05:33N 38°03' W 122°21'8 8.3
2016-Sep-17 04:33N 38°03' W 122°10'3 0.3
2016-Sep-16 17:07N 38°04' W 122°15'17 1.8
2016-Sep-16 07:33N 38°02' W 121°53'12 3.0
2016-Sep-16 03:33N 38°02' W 122°08'0 0.0
2016-Sep-16 02:33N 38°02' W 122°08'0 0.0
2016-Sep-16 00:32N 38°02' W 122°08'19 1.6
2016-Sep-15 12:34N 37°48' W 122°24'2 1.8
2016-Sep-15 11:34N 37°48' W 122°22'17 2.1
2016-Sep-15 03:20N 38°02' W 122°09'  
Track history (hours):
 
Tides and Currents Weather Stations Pressure Air Temp Water Temp Dewpoint Dewpoint Depression Visibility Wind Speed Wind Dir Waves Ship Positions

Delta Billie

Owner: Baydelta Maritime, San Francicso, CA. More information available from US FCC via Universal Licensing System and Coast Guard Vessel Documentation Center.

Last reported at 2016-Sep-24 16:21 UTC. Time now 2016-Sep-24 20:59 UTC.
Position N 38°03' W 122°11'.

Length 30 m; draft 5.5 m.

Type: Towing. MMSI: 367401030.

Date/timePositionNaut miles runAvg speedWind from/ knotsBaromVisibWave heightAir tempDewpointWater temp
2016-Sep-24 16:21N 38°03' W 122°11'3 0.2
2016-Sep-24 03:32N 38°02' W 122°07'0 0.2
2016-Sep-24 01:26N 38°02' W 122°08'5 0.9
2016-Sep-23 19:27N 38°04' W 122°14'3 0.7
2016-Sep-23 15:27N 38°03' W 122°18'10 5.0
2016-Sep-23 13:33N 37°55' W 122°25'0 0.0
2016-Sep-23 09:34N 37°55' W 122°25'0 0.0
2016-Sep-23 06:34N 37°55' W 122°25'0 0.0
2016-Sep-23 04:33N 37°55' W 122°25'0 0.0
2016-Sep-23 03:34N 37°55' W 122°25'0 0.0
2016-Sep-23 02:33N 37°55' W 122°25'0 0.0
2016-Sep-23 01:34N 37°55' W 122°25'0 0.0
2016-Sep-23 00:34N 37°55' W 122°25'2 2.2
2016-Sep-22 23:33N 37°54' W 122°22'6 2.1
2016-Sep-22 20:33N 37°48' W 122°24'3 0.4
2016-Sep-22 12:33N 37°49' W 122°20'3 0.4
2016-Sep-22 04:33N 37°48' W 122°24'0 0.0
2016-Sep-22 03:33N 37°48' W 122°24'18 2.2
2016-Sep-21 19:28N 38°03' W 122°11'16 5.3
2016-Sep-21 16:33N 37°50' W 122°22'4 0.6
2016-Sep-21 09:33N 37°54' W 122°25'8 8.3
2016-Sep-21 08:33N 38°02' W 122°22'13 2.5
2016-Sep-21 03:33N 38°03' W 122°06'2 2.3
2016-Sep-21 02:33N 38°02' W 122°09'5 0.1
2016-Sep-19 12:24N 38°03' W 122°15'1 0.9
2016-Sep-19 11:33N 38°03' W 122°16'16 0.8
2016-Sep-18 15:34N 37°50' W 122°27'4 3.8
2016-Sep-18 14:33N 37°48' W 122°30'9 2.3
2016-Sep-18 10:34N 37°48' W 122°19'2 1.6
2016-Sep-18 09:33N 37°48' W 122°21'3 0.4
2016-Sep-18 02:33N 37°48' W 122°24'4 3.9
2016-Sep-18 01:34N 37°45' W 122°21'6 6.1
2016-Sep-18 00:34N 37°49' W 122°27'2 1.0
2016-Sep-17 22:34N 37°49' W 122°24'1 0.7
2016-Sep-17 21:33N 37°48' W 122°24'0 0.0
2016-Sep-17 20:33N 37°48' W 122°24'3 2.2
2016-Sep-17 19:16N 37°51' W 122°25'5 0.8
2016-Sep-17 13:33N 37°56' W 122°25'0 0.0
2016-Sep-17 10:33N 37°56' W 122°25'0 0.0
2016-Sep-17 09:29N 37°56' W 122°25'6 6.3
2016-Sep-17 08:33N 37°50' W 122°28'1 0.7
2016-Sep-17 07:34N 37°50' W 122°28'14 6.9
2016-Sep-17 05:33N 38°03' W 122°21'8 8.3
2016-Sep-17 04:33N 38°03' W 122°10'3 0.3
2016-Sep-16 17:07N 38°04' W 122°15'17 1.8
2016-Sep-16 07:33N 38°02' W 121°53'12 3.0
2016-Sep-16 03:33N 38°02' W 122°08'0 0.0
2016-Sep-16 02:33N 38°02' W 122°08'0 0.0
2016-Sep-16 00:32N 38°02' W 122°08'19 1.6
2016-Sep-15 12:34N 37°48' W 122°24'2 1.8
2016-Sep-15 11:34N 37°48' W 122°22'17 2.1
2016-Sep-15 03:20N 38°02' W 122°09'  

Dump ship's entire track history